Aérodrome :
LOGIN :

S'inscrire | Disclaimer

   EN    FR    IT 

 










Légende :    VFR   VFR Marginal   IFR   IFR Intensif   IFR Très Intensif
Visi : 
Plafond : 
>= 8 km
>= 3000ft
5 à 8 km
1000 à 3000 ft
1500m à 5 km
500 à 1000 ft
800 à 1500m
200 à 500 ft
< 800m
< 200 ft
Symboles :   Orages  Brouillard  Fortes neiges  Fortes précipitations  Vent > 20 kt
SIGMETs :   Divers  Orages  Givrage  Turbulence  Onde Orograph.  Cendres Volcan.






- Altitude de l'aérodrome : 485 ft
- Code IATA : QSA


LELL - Sabadell

DERNIER METAR :
  • 030700Z 00000KT 9999 FEW020 22/18 Q1017

METARs EXPIRÉS :
  • 030630Z 00000KT 9999 FEW020 22/18 Q1017
  • 030600Z 27002KT 9999 FEW020 20/18 Q1017
  • 030530Z AUTO 27001KT 9999 BKN018 19/18 Q1017
  • 030500Z AUTO 29003KT 9999 SCT018 18/17 Q1017
  • 030430Z AUTO 27002KT CAVOK 18/17 Q1017

TAF TAF LELL
Valide du 03 à 03h jusqu'au 04 à 03h UTC


030200Z 0303/0403 VRB03KT 9999 FEW020 TX29/0313Z TN17/0305Z
PROB30
TEMPO 0303/0306 3000 BR BKN012
BECMG 0310/0312 19010KT
BECMG 0318/0320 VRB04KT



MET'MAP, la Météo Aéronautique d'un coup d'oeil ! - Copyright ORBIFLY Décembre 2007 - Disclaimer

ORBIFLY MET'MAP TEAM :

Programmation & Développement : Alexandra Zaïnal
Sur une idée originale de : Baudouin d'Aumeries
Assistance à la programmation : Marc-Olivier Méhu
Soutien technique & logistique : Manuel Goepfert

Contact : metmap@orbifly.com




SOURCES & CREDITS :

   NOAA